Time;durP1;ratioP1;P1;durP2;ratioP2;P2;SDS_P1;SDS_P2;PMS_P1;PMS_P2;Temp;Humidity;BMP_temperature;BMP_pressure;BME280_temperature;BME280_humidity;BME280_pressure;Samples;Min_cycle;Max_cycle;Signal;HPM_P1;HPM_P2
2021/11/21 00:02:17;;;;;;;7.05;1.67;;;22.60;60.10;;;;;;5072389;28;20028;-70
2021/11/21 00:04:43;;;;;;;5.65;1.90;;;22.50;60.10;;;;;;5071160;28;20074;-71
2021/11/21 00:07:10;;;;;;;6.35;1.80;;;22.50;60.10;;;;;;5072440;28;20039;-70
2021/11/21 00:09:36;;;;;;;4.20;1.40;;;22.50;60.10;;;;;;5071292;28;20025;-71
2021/11/21 00:12:03;;;;;;;3.67;1.50;;;22.50;60.20;;;;;;5072183;28;20029;-70
2021/11/21 00:14:30;;;;;;;3.50;1.77;;;22.40;60.20;;;;;;5071835;28;20023;-71
2021/11/21 00:17:00;;;;;;;4.03;1.30;;;22.50;60.20;;;;;;5071837;28;20025;-71
2021/11/21 00:19:27;;;;;;;5.53;1.45;;;22.40;60.20;;;;;;5072079;28;20486;-71
2021/11/21 00:21:54;;;;;;;4.68;1.88;;;22.40;60.30;;;;;;5070810;28;20107;-71
2021/11/21 00:24:21;;;;;;;9.15;3.20;;;22.40;60.20;;;;;;5067721;28;20475;-72
2021/11/21 00:26:48;;;;;;;7.95;2.28;;;22.40;60.30;;;;;;5071061;28;20063;-72
2021/11/21 00:29:14;;;;;;;11.50;2.95;;;22.40;60.30;;;;;;5071876;28;20024;-72
2021/11/21 00:31:41;;;;;;;5.65;1.85;;;22.40;60.40;;;;;;5071571;28;20025;-72
2021/11/21 00:34:07;;;;;;;6.20;1.55;;;22.30;60.40;;;;;;5071167;28;20383;-72
2021/11/21 00:36:34;;;;;;;3.90;1.52;;;22.40;60.50;;;;;;5071600;28;20074;-72
2021/11/21 00:39:00;;;;;;;5.47;1.35;;;22.30;60.50;;;;;;5070625;28;20025;-71
2021/11/21 00:41:27;;;;;;;7.72;2.00;;;22.30;60.40;;;;;;5067870;28;20082;-71
2021/11/21 00:43:53;;;;;;;7.93;1.55;;;22.30;60.50;;;;;;5070453;28;20071;-71
2021/11/21 00:46:20;;;;;;;3.13;1.50;;;22.30;60.50;;;;;;5071958;28;20379;-72
2021/11/21 00:48:47;;;;;;;10.68;2.00;;;22.30;60.60;;;;;;5070339;28;20482;-71
2021/11/21 00:51:15;;;;;;;6.50;1.65;;;22.30;60.60;;;;;;5071855;28;20403;-72
2021/11/21 00:53:43;;;;;;;7.53;1.58;;;22.30;60.60;;;;;;5071086;28;20146;-72
2021/11/21 00:56:10;;;;;;;4.82;1.67;;;22.30;60.60;;;;;;5070170;28;20035;-73
2021/11/21 00:58:38;;;;;;;7.75;1.90;;;22.20;60.50;;;;;;5071497;28;20070;-71
2021/11/21 01:01:06;;;;;;;6.05;1.42;;;22.20;60.60;;;;;;5070063;28;20375;-72
2021/11/21 01:03:33;;;;;;;6.40;1.60;;;22.20;60.60;;;;;;5071137;28;20040;-71
2021/11/21 01:06:00;;;;;;;6.95;1.42;;;22.20;60.60;;;;;;5070350;28;20385;-72
2021/11/21 01:08:27;;;;;;;2.97;1.50;;;22.20;60.70;;;;;;5070881;28;20020;-71
2021/11/21 01:10:57;;;;;;;9.02;1.80;;;22.20;60.70;;;;;;5070431;28;20525;-72
2021/11/21 01:13:25;;;;;;;5.03;2.00;;;22.20;60.70;;;;;;5069975;28;20024;-71
2021/11/21 01:15:52;;;;;;;10.85;2.72;;;22.20;60.70;;;;;;5071444;28;20062;-72
2021/11/21 01:18:19;;;;;;;4.85;2.08;;;22.20;60.70;;;;;;5069616;28;20385;-71
2021/11/21 01:20:46;;;;;;;6.80;1.52;;;22.10;60.70;;;;;;5070802;28;20696;-71
2021/11/21 01:23:15;;;;;;;3.72;1.30;;;22.10;60.70;;;;;;5069180;28;20017;-72
2021/11/21 01:25:43;;;;;;;4.75;2.03;;;22.10;60.80;;;;;;5070516;28;20027;-72
2021/11/21 01:28:11;;;;;;;4.05;1.80;;;22.10;60.80;;;;;;5070442;28;20509;-72
2021/11/21 01:30:38;;;;;;;5.50;1.75;;;22.10;60.80;;;;;;5069972;28;20015;-72
2021/11/21 01:33:04;;;;;;;2.85;1.42;;;22.10;60.80;;;;;;5069236;28;20032;-71
2021/11/21 01:35:31;;;;;;;9.20;2.17;;;22.10;60.80;;;;;;5069787;28;20391;-71
2021/11/21 01:37:59;;;;;;;7.65;2.88;;;22.10;60.80;;;;;;5070521;28;20033;-70
2021/11/21 01:40:25;;;;;;;9.00;1.75;;;22.10;60.90;;;;;;5069332;28;20024;-71
2021/11/21 01:42:54;;;;;;;4.35;1.40;;;22.00;60.90;;;;;;5069759;28;20487;-70
2021/11/21 01:45:21;;;;;;;4.25;1.77;;;22.00;61.00;;;;;;5069719;28;20028;-71
2021/11/21 01:47:48;;;;;;;8.45;2.00;;;22.00;61.00;;;;;;5069701;28;20420;-71
2021/11/21 01:50:28;;;;;;;5.57;1.73;;;22.00;61.10;;;;;;5069402;28;20036;-72
2021/11/21 01:52:55;;;;;;;3.45;1.50;;;22.00;61.10;;;;;;5069107;28;20414;-71
2021/11/21 01:55:22;;;;;;;9.68;1.80;;;22.00;61.20;;;;;;5063722;28;20415;-70
2021/11/21 01:57:49;;;;;;;6.47;1.92;;;22.00;61.20;;;;;;5068475;28;20036;-72
2021/11/21 02:00:17;;;;;;;5.78;2.67;;;22.00;61.20;;;;;;5070469;28;20028;-72
2021/11/21 02:02:44;;;;;;;5.88;1.90;;;22.00;61.30;;;;;;5069689;28;20013;-72
2021/11/21 02:05:11;;;;;;;8.00;2.17;;;22.00;61.30;;;;;;5069426;28;20039;-71
2021/11/21 02:07:41;;;;;;;5.45;1.50;;;21.90;61.30;;;;;;5070335;28;20024;-70
2021/11/21 02:10:10;;;;;;;7.13;2.15;;;21.90;61.40;;;;;;5069133;28;20376;-72
2021/11/21 02:12:36;;;;;;;6.45;1.77;;;21.90;61.50;;;;;;5069668;28;20027;-72
2021/11/21 02:15:09;;;;;;;4.18;1.50;;;21.80;61.40;;;;;;5067833;28;20479;-71
2021/11/21 02:17:36;;;;;;;5.97;1.88;;;21.90;61.50;;;;;;5070031;28;20120;-71
2021/11/21 02:20:04;;;;;;;3.05;1.45;;;21.80;61.50;;;;;;5068912;28;20379;-68
2021/11/21 02:22:31;;;;;;;5.80;1.75;;;21.80;61.60;;;;;;5069232;28;20021;-71
2021/11/21 02:24:58;;;;;;;15.77;2.40;;;21.80;61.60;;;;;;5069824;28;20025;-72
2021/11/21 02:27:29;;;;;;;6.60;1.45;;;21.80;61.70;;;;;;5068937;28;20075;-69
2021/11/21 02:29:56;;;;;;;6.68;1.95;;;21.80;61.70;;;;;;5067910;28;20448;-71
2021/11/21 02:32:23;;;;;;;7.93;2.10;;;21.80;61.80;;;;;;5069223;28;20024;-68
2021/11/21 02:34:49;;;;;;;6.70;1.70;;;21.80;61.80;;;;;;5069980;28;20030;-68
2021/11/21 02:37:16;;;;;;;3.47;1.83;;;21.80;61.90;;;;;;5069002;28;20029;-71
2021/11/21 02:39:43;;;;;;;6.18;2.00;;;21.70;61.90;;;;;;5065697;28;20025;-71
2021/11/21 02:42:23;;;;;;;5.57;1.45;;;21.80;62.00;;;;;;5069363;28;20150;-72
2021/11/21 02:44:49;;;;;;;10.80;1.67;;;21.70;62.10;;;;;;5068860;28;20055;-71
2021/11/21 02:47:16;;;;;;;5.00;1.55;;;21.70;62.20;;;;;;5069643;28;20027;-72
2021/11/21 02:49:42;;;;;;;8.32;2.13;;;21.70;62.20;;;;;;5064781;28;20032;-71
2021/11/21 02:52:09;;;;;;;13.35;2.85;;;21.70;62.30;;;;;;5069245;28;20020;-72
2021/11/21 02:54:35;;;;;;;4.15;1.75;;;21.70;62.40;;;;;;5068869;28;20111;-72
2021/11/21 02:57:02;;;;;;;6.13;1.38;;;21.70;62.40;;;;;;5055250;28;20094;-71
2021/11/21 02:59:29;;;;;;;4.00;1.15;;;21.70;62.40;;;;;;5069528;28;20017;-72
2021/11/21 03:01:56;;;;;;;3.95;1.55;;;21.70;62.40;;;;;;5068382;28;20013;-72
2021/11/21 03:04:23;;;;;;;8.27;1.67;;;21.60;62.30;;;;;;5070366;28;20029;-72
2021/11/21 03:06:50;;;;;;;5.30;1.58;;;21.70;62.40;;;;;;5068312;28;20082;-71
2021/11/21 03:09:22;;;;;;;3.45;1.48;;;21.60;62.40;;;;;;5068108;28;20028;-72
2021/11/21 03:11:52;;;;;;;10.50;1.95;;;21.60;62.30;;;;;;5068431;28;20490;-72
2021/11/21 03:14:19;;;;;;;9.88;1.98;;;21.60;62.30;;;;;;5068890;28;20017;-72
2021/11/21 03:16:47;;;;;;;8.85;1.40;;;21.60;62.30;;;;;;5069309;28;20074;-72
2021/11/21 03:19:14;;;;;;;10.00;2.58;;;21.60;62.30;;;;;;5068473;28;20090;-72
2021/11/21 03:21:41;;;;;;;2.97;1.10;;;21.60;62.30;;;;;;5069317;28;20071;-72
2021/11/21 03:24:08;;;;;;;4.10;1.60;;;21.60;62.30;;;;;;5068024;28;20021;-72
2021/11/21 03:26:35;;;;;;;8.55;1.95;;;21.60;62.20;;;;;;5069566;28;20045;-72
2021/11/21 03:29:02;;;;;;;5.50;1.70;;;21.60;62.20;;;;;;5068213;28;20078;-72
2021/11/21 03:31:33;;;;;;;5.38;1.25;;;21.60;62.30;;;;;;5071418;28;20012;-68
2021/11/21 03:34:02;;;;;;;7.13;1.50;;;21.60;62.30;;;;;;5071329;28;20020;-72
2021/11/21 03:36:30;;;;;;;6.22;1.60;;;21.50;62.20;;;;;;5072213;28;20387;-72
2021/11/21 03:38:56;;;;;;;6.78;2.03;;;21.50;62.20;;;;;;5072670;28;20017;-71
2021/11/21 03:41:23;;;;;;;5.88;1.88;;;21.50;62.20;;;;;;5071586;28;20111;-71
2021/11/21 03:43:50;;;;;;;6.00;1.95;;;21.50;62.20;;;;;;5072745;28;20017;-71
2021/11/21 03:46:17;;;;;;;5.72;1.45;;;21.50;62.20;;;;;;5072084;28;20472;-71
2021/11/21 03:48:44;;;;;;;5.68;1.50;;;21.50;62.10;;;;;;5072384;28;20052;-71
2021/11/21 03:51:10;;;;;;;8.75;1.63;;;21.50;62.10;;;;;;5072322;28;20067;-71
2021/11/21 03:53:37;;;;;;;7.53;1.65;;;21.50;62.20;;;;;;5071744;28;20004;-72
2021/11/21 03:56:04;;;;;;;11.90;3.92;;;21.50;62.20;;;;;;5072344;28;20027;-71
2021/11/21 03:58:30;;;;;;;8.57;3.28;;;21.50;62.30;;;;;;5071220;28;20041;-71
2021/11/21 04:01:36;;;;;;;5.70;1.80;;;21.40;62.30;;;;;;5072138;28;20091;-72
2021/11/21 04:04:42;;;;;;;7.40;1.38;;;21.40;62.40;;;;;;5071543;28;20028;-72
2021/11/21 04:07:09;;;;;;;9.20;3.08;;;21.40;62.40;;;;;;5070776;28;20054;-72
2021/11/21 04:09:35;;;;;;;8.95;2.65;;;21.40;62.50;;;;;;5072303;28;20029;-72
2021/11/21 04:12:02;;;;;;;8.27;2.83;;;21.40;62.50;;;;;;5070335;28;20017;-73
2021/11/21 04:14:34;;;;;;;6.75;2.50;;;21.40;62.50;;;;;;5070054;28;20021;-72
2021/11/21 04:17:08;;;;;;;7.40;2.30;;;21.40;62.60;;;;;;5071472;28;20024;-72
2021/11/21 04:19:37;;;;;;;11.35;2.47;;;21.40;62.60;;;;;;5071475;28;20033;-73
2021/11/21 04:22:07;;;;;;;6.82;2.17;;;21.40;62.60;;;;;;5071999;28;20023;-74
2021/11/21 04:24:36;;;;;;;5.03;1.77;;;21.40;62.60;;;;;;5070839;28;20028;-73
2021/11/21 04:27:14;;;;;;;9.48;2.20;;;21.40;62.70;;;;;;5069527;28;20087;-70
2021/11/21 04:29:44;;;;;;;7.30;2.35;;;21.40;62.70;;;;;;5067972;28;20040;-73
2021/11/21 04:32:12;;;;;;;4.22;1.88;;;21.40;62.80;;;;;;5070462;28;20027;-73
2021/11/21 04:34:39;;;;;;;8.48;1.98;;;21.40;62.90;;;;;;5070845;28;20028;-72
2021/11/21 04:37:05;;;;;;;5.68;1.73;;;21.40;63.00;;;;;;5070098;28;20080;-73
2021/11/21 04:39:32;;;;;;;3.08;1.85;;;21.40;63.00;;;;;;5071289;28;20059;-71
2021/11/21 04:41:58;;;;;;;4.55;1.48;;;21.40;63.10;;;;;;5068840;28;20028;-71
2021/11/21 04:44:27;;;;;;;6.50;1.60;;;21.40;63.10;;;;;;5070754;28;20410;-73
2021/11/21 04:46:57;;;;;;;7.07;1.85;;;21.40;63.10;;;;;;5070179;28;20048;-73
2021/11/21 04:49:23;;;;;;;5.10;2.35;;;21.50;63.20;;;;;;5070401;28;20103;-75
2021/11/21 04:51:50;;;;;;;5.38;1.40;;;21.40;63.20;;;;;;5070406;28;20115;-75
2021/11/21 04:54:25;;;;;;;8.45;2.35;;;21.40;63.20;;;;;;5054373;28;20017;-74
2021/11/21 04:56:52;;;;;;;4.20;1.45;;;21.40;63.30;;;;;;5069863;28;20039;-70
2021/11/21 04:59:20;;;;;;;4.95;2.17;;;21.40;63.20;;;;;;5066958;28;20020;-73
2021/11/21 05:01:49;;;;;;;8.05;2.03;;;21.40;63.30;;;;;;5068945;28;20074;-72
2021/11/21 05:04:17;;;;;;;8.60;1.70;;;21.40;63.30;;;;;;5069323;28;20021;-73
2021/11/21 05:06:43;;;;;;;6.18;1.73;;;21.40;63.40;;;;;;5068589;28;20123;-72
2021/11/21 05:09:11;;;;;;;3.85;2.28;;;21.50;63.40;;;;;;5070062;28;20031;-73
2021/11/21 05:11:37;;;;;;;6.55;1.80;;;21.50;63.40;;;;;;5068846;28;20052;-74
2021/11/21 05:14:05;;;;;;;6.28;1.58;;;21.50;63.40;;;;;;5070414;28;20054;-68
2021/11/21 05:16:36;;;;;;;4.30;1.35;;;21.50;63.40;;;;;;5066878;28;20020;-72
2021/11/21 05:19:05;;;;;;;6.82;3.55;;;21.50;63.50;;;;;;5066737;28;20036;-68
2021/11/21 05:21:32;;;;;;;3.30;1.35;;;21.50;63.50;;;;;;5065154;28;20036;-71
2021/11/21 05:24:00;;;;;;;5.88;1.90;;;21.50;63.40;;;;;;5068190;28;20066;-70
2021/11/21 05:26:29;;;;;;;5.07;1.65;;;21.60;63.50;;;;;;5067562;28;20041;-70
2021/11/21 05:28:55;;;;;;;6.10;1.50;;;21.60;63.50;;;;;;5065424;28;20097;-71
2021/11/21 05:31:25;;;;;;;4.55;1.58;;;21.60;63.50;;;;;;5067856;28;20020;-72
2021/11/21 05:33:52;;;;;;;4.90;1.52;;;21.60;63.40;;;;;;5066028;28;20602;-72
2021/11/21 05:36:19;;;;;;;6.55;1.75;;;21.60;63.40;;;;;;5067846;28;20017;-73
2021/11/21 05:38:46;;;;;;;10.88;2.33;;;21.60;63.30;;;;;;5065773;28;20025;-72
2021/11/21 05:41:15;;;;;;;7.22;1.48;;;21.70;63.30;;;;;;5067320;28;20605;-68
2021/11/21 05:43:43;;;;;;;5.32;1.85;;;21.70;63.20;;;;;;5066470;28;20024;-72
2021/11/21 05:46:10;;;;;;;9.07;2.30;;;21.80;63.20;;;;;;5066341;28;20019;-68
2021/11/21 05:48:36;;;;;;;3.70;1.33;;;21.80;63.20;;;;;;5066816;28;20051;-71
2021/11/21 05:51:07;;;;;;;5.70;1.92;;;21.80;63.20;;;;;;5065720;28;20098;-70
2021/11/21 05:53:34;;;;;;;7.22;1.50;;;21.90;63.20;;;;;;5066487;28;20395;-72
2021/11/21 05:56:00;;;;;;;8.52;2.22;;;21.90;63.20;;;;;;5066241;28;20008;-71
2021/11/21 05:58:28;;;;;;;7.85;1.90;;;21.90;63.10;;;;;;5066993;28;20024;-72
2021/11/21 06:00:54;;;;;;;5.03;1.83;;;22.00;63.10;;;;;;5066441;28;20542;-68
2021/11/21 06:03:21;;;;;;;6.25;1.48;;;22.00;63.30;;;;;;5063621;28;20162;-72
2021/11/21 06:05:47;;;;;;;5.63;2.13;;;22.00;63.10;;;;;;5067210;28;20028;-73
2021/11/21 06:08:17;;;;;;;6.80;1.92;;;22.10;63.10;;;;;;5065858;28;20033;-73
2021/11/21 06:10:44;;;;;;;7.88;2.03;;;22.10;63.10;;;;;;5067344;28;20032;-71
2021/11/21 06:13:10;;;;;;;11.43;1.42;;;22.10;63.10;;;;;;5066316;28;20013;-70
2021/11/21 06:15:40;;;;;;;9.77;1.75;;;22.20;63.10;;;;;;5068179;28;20024;-67
2021/11/21 06:18:06;;;;;;;9.65;1.88;;;22.20;63.00;;;;;;5068873;28;20039;-69
2021/11/21 06:20:33;;;;;;;8.05;2.30;;;22.20;62.90;;;;;;5067470;28;20013;-69
2021/11/21 06:23:02;;;;;;;6.70;2.70;;;22.20;62.80;;;;;;5069022;28;20017;-71
2021/11/21 06:25:54;;;;;;;7.15;2.65;;;22.30;62.70;;;;;;5068440;28;20032;-71
2021/11/21 06:28:21;;;;;;;8.55;2.35;;;22.30;62.70;;;;;;5069062;28;20055;-71
2021/11/21 06:30:48;;;;;;;7.03;2.25;;;22.40;62.80;;;;;;5068050;28;20066;-68
2021/11/21 06:33:15;;;;;;;7.50;3.47;;;22.40;62.70;;;;;;5069539;28;20017;-70
2021/11/21 06:35:43;;;;;;;6.30;2.72;;;22.50;62.60;;;;;;5068688;28;20017;-70
2021/11/21 06:38:10;;;;;;;5.32;2.13;;;22.50;62.40;;;;;;5066937;28;20036;-69
2021/11/21 06:40:36;;;;;;;5.65;2.22;;;22.50;62.20;;;;;;5069137;28;20494;-70
2021/11/21 06:43:03;;;;;;;6.70;2.30;;;22.60;62.00;;;;;;5067874;28;20016;-70
2021/11/21 06:45:29;;;;;;;6.97;1.83;;;22.60;61.90;;;;;;5066198;28;20106;-71
2021/11/21 06:47:57;;;;;;;9.65;1.95;;;22.60;61.60;;;;;;5068360;28;20039;-71
2021/11/21 06:50:24;;;;;;;5.15;2.00;;;22.70;61.40;;;;;;5069582;28;20035;-71
2021/11/21 06:52:50;;;;;;;6.95;1.75;;;22.70;61.50;;;;;;5069041;28;20062;-70
2021/11/21 06:55:17;;;;;;;6.45;1.90;;;22.80;61.40;;;;;;5068670;28;20028;-70
2021/11/21 06:57:44;;;;;;;9.60;2.13;;;22.80;61.30;;;;;;5069076;28;20032;-70
2021/11/21 07:00:15;;;;;;;5.38;2.10;;;22.80;61.30;;;;;;5067806;28;20025;-71
2021/11/21 07:02:42;;;;;;;7.78;2.03;;;22.90;61.40;;;;;;5068800;28;20111;-68
2021/11/21 07:05:08;;;;;;;4.25;1.48;;;22.90;61.40;;;;;;5068008;28;20391;-69
2021/11/21 07:07:36;;;;;;;8.35;1.67;;;23.00;61.40;;;;;;5073130;28;20099;-69
2021/11/21 07:10:06;;;;;;;6.03;1.85;;;23.00;61.30;;;;;;5072627;28;20066;-69
2021/11/21 07:12:34;;;;;;;6.40;1.73;;;23.10;61.30;;;;;;5072638;28;20048;-70
2021/11/21 07:15:07;;;;;;;6.75;1.55;;;23.10;62.00;;;;;;5072572;28;20024;-68
2021/11/21 07:17:34;;;;;;;9.07;2.10;;;23.10;61.40;;;;;;5069917;28;20032;-70
2021/11/21 07:20:00;;;;;;;6.65;2.15;;;23.20;61.30;;;;;;5071168;28;20597;-70
2021/11/21 07:22:27;;;;;;;5.18;2.22;;;23.30;61.30;;;;;;5069936;28;20023;-67
2021/11/21 07:24:54;;;;;;;5.88;1.73;;;23.30;60.90;;;;;;5067493;28;20083;-70
2021/11/21 07:27:21;;;;;;;5.30;1.83;;;23.30;60.80;;;;;;5068594;28;20400;-70
2021/11/21 07:29:52;;;;;;;6.63;1.40;;;23.30;60.60;;;;;;5068729;28;20040;-67
2021/11/21 07:32:18;;;;;;;6.18;1.20;;;23.40;60.70;;;;;;5070149;28;20033;-67
2021/11/21 07:34:45;;;;;;;5.75;1.63;;;23.40;60.50;;;;;;5069664;28;20025;-71
2021/11/21 07:37:11;;;;;;;3.00;1.38;;;23.50;60.40;;;;;;5071047;28;20532;-71
2021/11/21 07:39:38;;;;;;;3.70;1.48;;;23.50;60.30;;;;;;5068589;28;20050;-70
2021/11/21 07:42:05;;;;;;;5.25;1.75;;;23.60;60.30;;;;;;5069811;28;20028;-71
2021/11/21 07:44:31;;;;;;;4.38;1.63;;;23.60;60.20;;;;;;5070098;28;20364;-71
2021/11/21 07:46:58;;;;;;;4.95;1.92;;;23.70;59.90;;;;;;5067841;28;20349;-73
2021/11/21 07:49:24;;;;;;;4.05;2.17;;;23.70;59.60;;;;;;5069677;28;20356;-69
2021/11/21 07:51:51;;;;;;;9.13;1.73;;;23.80;59.40;;;;;;5069675;28;20016;-70
2021/11/21 07:54:17;;;;;;;4.90;1.30;;;23.80;59.00;;;;;;5068129;28;20032;-70
2021/11/21 07:56:44;;;;;;;4.72;1.63;;;23.90;58.90;;;;;;5069435;28;20467;-68
2021/11/21 07:59:11;;;;;;;6.30;1.50;;;23.90;58.80;;;;;;5070362;28;20017;-71
2021/11/21 08:01:38;;;;;;;7.68;1.92;;;23.90;58.60;;;;;;5069385;28;20025;-68
2021/11/21 08:04:08;;;;;;;8.50;1.67;;;24.00;58.70;;;;;;5070692;28;20077;-67
2021/11/21 08:06:34;;;;;;;4.50;1.50;;;24.10;58.90;;;;;;5070422;28;20021;-72
2021/11/21 08:09:01;;;;;;;7.93;1.95;;;24.10;58.80;;;;;;5069607;28;20099;-67
2021/11/21 08:11:29;;;;;;;12.38;2.00;;;24.10;58.80;;;;;;5068881;28;20472;-67
2021/11/21 08:13:56;;;;;;;2.78;1.20;;;24.20;58.50;;;;;;5067640;28;20028;-68
2021/11/21 08:16:23;;;;;;;6.10;1.70;;;24.30;57.80;;;;;;5069965;28;20021;-71
2021/11/21 08:18:49;;;;;;;4.15;1.77;;;24.30;58.00;;;;;;5070265;28;20502;-70
2021/11/21 08:21:16;;;;;;;7.68;2.67;;;24.30;57.70;;;;;;5071688;28;20049;-71
2021/11/21 08:23:42;;;;;;;6.47;1.27;;;24.40;57.60;;;;;;5070298;28;20078;-75
2021/11/21 08:26:09;;;;;;;10.30;2.55;;;24.40;57.50;;;;;;5071342;28;20023;-71
2021/11/21 08:28:38;;;;;;;7.47;2.40;;;24.50;57.20;;;;;;5071056;28;20053;-72
2021/11/21 08:31:06;;;;;;;8.55;1.50;;;24.50;57.00;;;;;;5070929;28;20587;-76
2021/11/21 08:33:33;;;;;;;8.98;1.48;;;24.50;56.50;;;;;;5071827;28;20020;-73
2021/11/21 08:36:00;;;;;;;12.35;2.17;;;24.60;56.00;;;;;;5071539;28;20063;-78
2021/11/21 08:38:26;;;;;;;8.45;5.78;;;24.60;55.70;;;;;;5070938;28;20364;-81
2021/11/21 08:40:55;;;;;;;14.02;9.32;;;24.70;55.80;;;;;;5071072;28;20035;-84
2021/11/21 08:43:22;;;;;;;11.55;6.78;;;24.70;55.80;;;;;;5071204;28;20466;-81
2021/11/21 08:45:48;;;;;;;22.70;7.13;;;24.80;55.90;;;;;;5071707;28;20027;-82
2021/11/21 08:48:15;;;;;;;9.73;4.78;;;24.90;56.20;;;;;;5070726;28;20111;-76
2021/11/21 08:50:41;;;;;;;8.73;3.70;;;24.90;56.30;;;;;;5072401;28;20476;-77
2021/11/21 08:53:09;;;;;;;8.57;3.85;;;24.90;56.10;;;;;;5070497;28;20368;-76
2021/11/21 08:55:36;;;;;;;11.02;2.97;;;25.00;55.80;;;;;;5071419;28;20021;-78
2021/11/21 08:58:12;;;;;;;4.97;2.17;;;25.00;55.80;;;;;;5070439;28;20111;-76
2021/11/21 09:00:39;;;;;;;5.75;2.38;;;25.10;56.00;;;;;;5101713;28;20066;-74
2021/11/21 09:03:05;;;;;;;6.32;2.33;;;25.20;55.80;;;;;;5068880;28;20105;-76
2021/11/21 09:05:33;;;;;;;4.18;2.47;;;25.20;55.60;;;;;;5068402;28;20010;-71
2021/11/21 09:08:07;;;;;;;4.38;1.77;;;25.20;55.40;;;;;;5067723;28;20070;-72
2021/11/21 09:10:57;;;;;;;10.65;2.63;;;25.30;54.90;;;;;;5065242;28;20043;-81
2021/11/21 09:13:31;;;;;;;6.07;1.80;;;25.30;54.60;;;;;;5065655;28;20081;-75
2021/11/21 09:16:13;;;;;;;8.30;3.28;;;25.40;54.90;;;;;;5066572;28;20091;-74
2021/11/21 09:18:45;;;;;;;12.10;7.07;;;25.50;54.70;;;;;;5062464;28;20580;-75
2021/11/21 09:21:12;;;;;;;8.73;4.07;;;25.50;54.60;;;;;;5067058;28;20027;-71
2021/11/21 09:23:38;;;;;;;9.70;3.95;;;25.60;54.20;;;;;;5068801;28;20024;-74
2021/11/21 09:26:29;;;;;;;8.88;2.50;;;25.60;54.00;;;;;;5066532;28;20104;-76
2021/11/21 09:28:57;;;;;;;6.57;2.28;;;25.70;53.70;;;;;;5067549;28;20020;-66
2021/11/21 09:31:27;;;;;;;8.40;3.35;;;25.70;53.70;;;;;;5067313;28;20033;-69
2021/11/21 09:34:06;;;;;;;10.25;3.70;;;25.70;53.60;;;;;;5064324;28;20036;-72
2021/11/21 09:36:34;;;;;;;10.38;4.05;;;25.80;54.00;;;;;;5066124;28;20472;-73
2021/11/21 09:39:02;;;;;;;5.97;4.22;;;25.80;54.00;;;;;;5099404;28;20569;-72
2021/11/21 09:41:33;;;;;;;10.75;3.78;;;25.90;54.00;;;;;;5067148;28;20394;-68
2021/11/21 09:44:00;;;;;;;9.48;4.05;;;25.90;54.00;;;;;;5065925;28;20025;-70
2021/11/21 09:46:30;;;;;;;10.32;4.00;;;26.00;53.90;;;;;;5067714;28;20050;-73
2021/11/21 09:48:57;;;;;;;8.57;3.40;;;26.00;54.00;;;;;;5066678;28;20464;-70
2021/11/21 09:51:30;;;;;;;9.20;4.28;;;26.00;54.20;;;;;;5067938;28;20499;-68
2021/11/21 09:54:11;;;;;;;9.85;2.58;;;26.10;54.20;;;;;;5063674;28;20123;-69
2021/11/21 09:56:48;;;;;;;4.20;1.80;;;26.20;54.20;;;;;;5064870;28;20070;-70
2021/11/21 09:59:14;;;;;;;8.40;2.55;;;26.20;54.00;;;;;;5067671;28;20497;-70
2021/11/21 10:01:46;;;;;;;5.57;2.25;;;26.40;53.70;;;;;;5068054;28;20044;-68
2021/11/21 10:04:18;;;;;;;7.00;2.28;;;26.40;53.40;;;;;;5067034;28;20035;-69
2021/11/21 10:06:49;;;;;;;5.45;1.92;;;26.50;53.10;;;;;;5068128;28;20032;-70
2021/11/21 10:09:40;;;;;;;4.82;2.13;;;26.60;52.80;;;;;;5069651;28;20109;-68
2021/11/21 10:12:07;;;;;;;9.43;3.50;;;26.70;53.00;;;;;;5069528;28;20039;-71
2021/11/21 10:15:12;;;;;;;11.15;3.22;;;26.70;52.80;;;;;;5068211;28;20043;-70
2021/11/21 10:18:20;;;;;;;12.02;2.65;;;26.80;52.80;;;;;;5065259;28;20037;-69
2021/11/21 10:21:28;;;;;;;9.82;3.35;;;26.80;52.60;;;;;;5065972;28;20544;-67
2021/11/21 10:25:06;;;;;;;8.10;2.63;;;26.80;52.80;;;;;;5064777;28;20024;-68
2021/11/21 10:28:17;;;;;;;8.25;2.80;;;26.70;53.20;;;;;;5044627;28;20503;-73
2021/11/21 10:31:22;;;;;;;11.68;3.17;;;26.70;53.40;;;;;;5066467;28;20103;-72
2021/11/21 10:34:36;;;;;;;6.72;2.58;;;26.70;53.20;;;;;;5065725;28;20009;-67
2021/11/21 10:37:47;;;;;;;8.45;2.75;;;26.70;53.30;;;;;;5064636;28;20052;-67
2021/11/21 10:41:14;;;;;;;10.48;3.20;;;26.70;53.40;;;;;;5063342;28;20494;-67
2021/11/21 10:44:24;;;;;;;6.18;2.70;;;26.70;53.50;;;;;;5063958;28;20032;-70
2021/11/21 10:47:36;;;;;;;9.82;4.20;;;26.70;53.50;;;;;;5067323;28;20086;-73
2021/11/21 10:50:50;;;;;;;12.35;4.20;;;26.70;53.60;;;;;;5067001;28;20102;-72
2021/11/21 10:53:59;;;;;;;10.60;3.67;;;26.70;53.70;;;;;;5066404;28;20116;-74
2021/11/21 10:57:07;;;;;;;12.32;3.10;;;26.80;53.70;;;;;;5065844;28;20128;-68
2021/11/21 11:00:13;;;;;;;15.07;5.75;;;26.80;53.70;;;;;;5068033;28;20048;-72
2021/11/21 11:03:23;;;;;;;11.13;3.42;;;26.80;53.50;;;;;;5068909;28;20033;-68
2021/11/21 11:06:34;;;;;;;11.13;5.05;;;26.80;53.50;;;;;;5068822;28;20025;-71
2021/11/21 11:09:43;;;;;;;10.02;3.17;;;26.90;53.30;;;;;;5067378;28;20093;-71
2021/11/21 11:12:49;;;;;;;9.23;3.80;;;26.90;53.30;;;;;;5067309;28;20012;-82
2021/11/21 11:15:56;;;;;;;5.75;2.20;;;26.90;53.20;;;;;;5067496;28;20047;-82
2021/11/21 11:19:02;;;;;;;8.90;3.97;;;27.00;53.20;;;;;;5066584;28;20511;-81
2021/11/21 11:22:08;;;;;;;9.43;2.45;;;27.00;53.20;;;;;;5067848;28;20021;-79
2021/11/21 11:25:21;;;;;;;12.90;2.40;;;27.00;53.10;;;;;;5067371;28;20104;-83
2021/11/21 11:28:43;;;;;;;12.52;3.00;;;27.00;53.10;;;;;;5065485;28;20047;-80
2021/11/21 11:32:22;;;;;;;8.07;2.60;;;27.10;53.10;;;;;;5028163;28;20049;-83
2021/11/21 11:35:42;;;;;;;12.05;2.75;;;27.10;53.20;;;;;;5044047;28;20476;-80
2021/11/21 11:38:57;;;;;;;7.13;2.53;;;27.10;53.10;;;;;;5066156;28;20045;-75
2021/11/21 11:42:16;;;;;;;8.65;3.08;;;27.20;53.10;;;;;;5065561;28;20017;-80
2021/11/21 11:45:12;;;;;;;;;;;27.20;53.10;;;;;;5059268;28;20036;-83
2021/11/21 11:48:18;;;;;;;6.22;2.30;;;27.20;52.90;;;;;;5070680;28;19923;-82
2021/11/21 11:51:23;;;;;;;8.30;2.60;;;27.20;52.80;;;;;;5065150;28;20020;-83
2021/11/21 11:54:15;;;;;;;8.25;2.65;;;27.20;53.00;;;;;;5066843;28;20028;-81
2021/11/21 11:57:30;;;;;;;8.02;2.10;;;27.20;53.10;;;;;;5069665;28;20118;-77
2021/11/21 12:00:49;;;;;;;11.50;2.97;;;27.20;53.00;;;;;;5066433;28;20039;-84
2021/11/21 12:03:56;;;;;;;12.82;7.53;;;27.20;53.20;;;;;;5069535;28;20055;-90
2021/11/21 12:07:20;;;;;;;10.70;3.10;;;27.30;53.10;;;;;;5071453;28;20483;-85
2021/11/21 12:10:29;;;;;;;9.43;2.90;;;27.30;53.00;;;;;;5070752;28;20029;-87
2021/11/21 12:13:55;;;;;;;9.63;2.35;;;27.40;52.80;;;;;;5070010;28;20115;-82
2021/11/21 12:17:31;;;;;;;9.63;2.60;;;27.40;52.80;;;;;;5067320;28;20051;-78
2021/11/21 12:21:00;;;;;;;11.00;2.83;;;27.50;52.70;;;;;;5069305;28;20020;-84
2021/11/21 12:23:52;;;;;;;7.37;2.07;;;27.50;52.60;;;;;;5068946;28;20133;-81
2021/11/21 12:26:57;;;;;;;4.75;2.03;;;27.50;52.30;;;;;;5074133;28;20277;-86
2021/11/21 12:30:29;;;;;;;4.88;1.70;;;27.50;52.40;;;;;;5072610;28;20044;-82
2021/11/21 12:33:09;;;;;;;7.53;2.47;;;27.50;52.30;;;;;;5068616;28;20090;-81
2021/11/21 12:35:42;;;;;;;8.95;2.35;;;27.60;52.40;;;;;;5070915;28;20483;-91
2021/11/21 12:38:32;;;;;;;6.68;2.10;;;27.60;52.40;;;;;;5070964;28;20043;-78
2021/11/21 12:41:12;;;;;;;5.25;2.05;;;27.60;52.10;;;;;;5069446;28;20111;-82
2021/11/21 12:43:56;;;;;;;8.90;2.15;;;27.60;52.50;;;;;;5071200;28;20111;-83
2021/11/21 12:46:29;;;;;;;8.77;2.92;;;27.60;52.60;;;;;;5070201;28;20112;-85
2021/11/21 12:49:17;;;;;;;7.78;2.22;;;27.60;52.70;;;;;;5068658;28;20037;-84
2021/11/21 12:52:18;;;;;;;8.38;2.63;;;27.60;53.20;;;;;;5069955;28;20395;-84
2021/11/21 12:54:53;;;;;;;8.85;3.00;;;27.60;53.80;;;;;;5069091;28;20033;-84
2021/11/21 12:57:20;;;;;;;9.07;3.38;;;27.60;54.40;;;;;;5071014;28;20064;-81
2021/11/21 12:59:56;;;;;;;6.57;2.13;;;27.60;54.60;;;;;;5068605;28;20016;-83
2021/11/21 13:02:30;;;;;;;6.65;2.40;;;27.60;54.20;;;;;;5072505;28;20060;-79
2021/11/21 13:05:00;;;;;;;4.18;1.67;;;27.70;54.10;;;;;;5070375;28;20055;-79
2021/11/21 13:07:44;;;;;;;7.70;2.13;;;27.60;53.70;;;;;;5070243;28;20017;-75
2021/11/21 13:10:15;;;;;;;13.23;4.22;;;27.60;53.70;;;;;;5071282;28;20081;-78
2021/11/21 13:12:51;;;;;;;9.75;2.42;;;27.60;53.50;;;;;;5070927;28;20107;-83
2021/11/21 13:15:23;;;;;;;8.77;2.47;;;27.60;53.40;;;;;;5071844;28;20069;-85
2021/11/21 13:18:07;;;;;;;9.10;3.45;;;27.60;53.50;;;;;;5068012;28;20302;-81
2021/11/21 13:20:35;;;;;;;13.20;3.60;;;27.60;53.60;;;;;;5068205;28;20012;-80
2021/11/21 13:23:23;;;;;;;10.23;2.83;;;27.60;53.60;;;;;;5071193;28;20366;-78
2021/11/21 13:26:37;;;;;;;6.72;2.70;;;27.60;53.70;;;;;;5067278;28;20019;-77
2021/11/21 13:29:43;;;;;;;7.03;2.58;;;27.60;53.60;;;;;;5069064;28;20046;-76